Main page
METAR-TAF:

METAR-TAF

Airports :

Kake Airport

Kake, Alaska, United States

latitude: 56-57N, longitude: 133-54W, elevation: 52 m

Current weather observation

The report was made 28 minutes ago, at 10:56 UTC
Wind 7 kt from the East/Northeast
Temperature -1°C
Humidity 86%
Pressure 1033 hPa
Visibility: 16.1 km
Clear sky

METAR: PAFE 161056Z AUTO 06007KT 10SM CLR M01/M03 A3051 RMK AO2 SLP346 T10061028 FZRANO

Time: 03:24 (11:24 UTC)


TAF: missing

Weather observations and forecasts of more than 4000 airports (METAR and TAF reports).

The available stations are represented by yellow and red dots on the map.

Hover mouse over dot to see the name of the station.

Then click to see weather observations and forecasts.

To change the map : click on the green buttons with a black cross to zoom in, on the green button with a dash to zoom out, or on the green arrows for adjacent maps.


METAR-TAF: